Time;durP1;ratioP1;P1;durP2;ratioP2;P2;SDS_P1;SDS_P2;PMS_P1;PMS_P2;Temp;Humidity;BMP_temperature;BMP_pressure;BME280_temperature;BME280_humidity;BME280_pressure;Samples;Min_cycle;Max_cycle;Signal;HPM_P1;HPM_P2
2024/01/15 00:00:52;;;;;;;7.40;4.33;;;;;;;;;;5072843;28;20446;-53
2024/01/15 00:03:18;;;;;;;7.27;3.87;;;;;;;;;;5072543;28;20456;-52
2024/01/15 00:05:45;;;;;;;8.67;3.60;;;;;;;;;;5072614;28;21055;-52
2024/01/15 00:08:11;;;;;;;6.17;3.77;;;;;;;;;;5072774;28;20234;-53
2024/01/15 00:10:38;;;;;;;6.43;3.43;;;;;;;;;;5072076;28;20485;-53
2024/01/15 00:13:04;;;;;;;7.70;3.40;;;;;;;;;;5072702;28;20207;-54
2024/01/15 00:15:30;;;;;;;8.30;5.03;;;;;;;;;;5072743;28;20960;-54
2024/01/15 00:17:56;;;;;;;7.43;3.70;;;;;;;;;;5072259;28;20251;-53
2024/01/15 00:20:22;;;;;;;10.27;5.00;;;;;;;;;;5072610;28;20207;-54
2024/01/15 00:22:50;;;;;;;6.53;4.20;;;;;;;;;;5072439;28;20804;-53
2024/01/15 00:25:16;;;;;;;6.17;4.07;;;;;;;;;;5072683;28;20419;-53
2024/01/15 00:27:42;;;;;;;9.37;4.50;;;;;;;;;;5072103;28;20945;-54
2024/01/15 00:30:08;;;;;;;9.50;4.13;;;;;;;;;;5072168;28;20203;-53
2024/01/15 00:32:34;;;;;;;5.73;3.77;;;;;;;;;;5072130;28;20298;-53
2024/01/15 00:35:00;;;;;;;6.43;4.43;;;;;;;;;;5072372;28;20517;-53
2024/01/15 00:37:26;;;;;;;5.77;4.00;;;;;;;;;;5072153;28;20233;-53
2024/01/15 00:39:53;;;;;;;6.07;3.93;;;;;;;;;;5072229;28;20630;-52
2024/01/15 00:42:19;;;;;;;6.30;3.30;;;;;;;;;;5071832;28;20207;-53
2024/01/15 00:44:45;;;;;;;8.30;4.10;;;;;;;;;;5071961;28;20434;-53
2024/01/15 00:47:11;;;;;;;9.40;3.83;;;;;;;;;;5072008;28;20591;-53
2024/01/15 00:49:37;;;;;;;7.27;4.00;;;;;;;;;;5071915;28;20223;-53
2024/01/15 00:52:03;;;;;;;8.40;4.00;;;;;;;;;;5071977;28;20195;-53
2024/01/15 00:54:29;;;;;;;7.23;3.43;;;;;;;;;;5071690;28;20203;-53
2024/01/15 00:56:56;;;;;;;7.37;4.03;;;;;;;;;;5071871;28;20442;-54
2024/01/15 00:59:22;;;;;;;6.20;3.30;;;;;;;;;;5071922;28;20298;-54
2024/01/15 01:01:49;;;;;;;7.07;3.33;;;;;;;;;;5071874;28;21009;-53
2024/01/15 01:04:15;;;;;;;6.00;3.40;;;;;;;;;;5072102;28;20453;-53
2024/01/15 01:06:41;;;;;;;7.27;3.50;;;;;;;;;;5069599;28;20528;-53
2024/01/15 01:09:07;;;;;;;7.97;3.07;;;;;;;;;;5071831;28;20200;-54
2024/01/15 01:11:33;;;;;;;7.90;3.07;;;;;;;;;;5071576;28;20485;-53
2024/01/15 01:14:01;;;;;;;7.87;3.53;;;;;;;;;;5071814;28;20437;-53
2024/01/15 01:16:27;;;;;;;8.67;3.13;;;;;;;;;;5071594;28;20666;-54
2024/01/15 01:18:53;;;;;;;6.20;2.97;;;;;;;;;;5071448;28;20433;-54
2024/01/15 01:21:19;;;;;;;6.20;2.73;;;;;;;;;;5071698;28;20491;-54
2024/01/15 01:23:45;;;;;;;6.27;2.63;;;;;;;;;;5069701;28;20211;-53
2024/01/15 01:26:11;;;;;;;7.23;3.03;;;;;;;;;;5069954;28;20309;-53
2024/01/15 01:28:38;;;;;;;9.37;3.37;;;;;;;;;;5071572;28;20532;-53
2024/01/15 01:31:05;;;;;;;8.53;3.57;;;;;;;;;;5071775;28;20202;-53
2024/01/15 01:33:31;;;;;;;7.43;3.07;;;;;;;;;;5071703;28;20458;-54
2024/01/15 01:35:57;;;;;;;8.37;3.07;;;;;;;;;;5071713;28;20438;-53
2024/01/15 01:38:23;;;;;;;6.47;2.97;;;;;;;;;;5071642;28;20238;-53
2024/01/15 01:40:49;;;;;;;6.20;3.30;;;;;;;;;;5071527;28;20689;-54
2024/01/15 01:43:15;;;;;;;6.50;3.10;;;;;;;;;;5071736;28;20207;-53
2024/01/15 01:45:41;;;;;;;8.67;3.20;;;;;;;;;;5071461;28;20262;-54
2024/01/15 01:48:08;;;;;;;3.97;2.90;;;;;;;;;;5071634;28;20196;-54
2024/01/15 01:50:34;;;;;;;5.77;2.83;;;;;;;;;;5071282;28;20242;-54
2024/01/15 01:53:01;;;;;;;6.13;2.70;;;;;;;;;;5071444;28;20441;-53
2024/01/15 01:55:28;;;;;;;6.87;3.23;;;;;;;;;;5071335;28;20438;-53
2024/01/15 01:57:55;;;;;;;8.23;2.57;;;;;;;;;;5071206;28;20486;-54
2024/01/15 02:00:21;;;;;;;8.60;2.27;;;;;;;;;;5071223;28;21130;-54
2024/01/15 02:02:47;;;;;;;5.23;2.27;;;;;;;;;;5071280;28;20435;-53
2024/01/15 02:05:14;;;;;;;7.27;2.57;;;;;;;;;;5071061;28;20787;-53
2024/01/15 02:07:41;;;;;;;6.47;2.73;;;;;;;;;;5070938;28;20314;-53
2024/01/15 02:10:07;;;;;;;6.10;2.07;;;;;;;;;;5071068;28;20591;-53
2024/01/15 02:12:33;;;;;;;6.33;2.30;;;;;;;;;;5069118;28;20846;-54
2024/01/15 02:14:59;;;;;;;10.70;2.53;;;;;;;;;;5071135;28;20933;-54
2024/01/15 02:17:25;;;;;;;7.27;2.60;;;;;;;;;;5072010;28;20456;-54
2024/01/15 02:19:51;;;;;;;7.20;2.00;;;;;;;;;;5074602;28;20558;-55
2024/01/15 02:22:18;;;;;;;6.10;2.07;;;;;;;;;;5074757;28;20207;-53
2024/01/15 02:24:46;;;;;;;9.83;2.43;;;;;;;;;;5074701;28;20207;-51
2024/01/15 02:27:12;;;;;;;7.27;2.13;;;;;;;;;;5074555;28;20933;-50
2024/01/15 02:29:38;;;;;;;5.27;1.93;;;;;;;;;;5067583;28;20539;-50
2024/01/15 02:32:05;;;;;;;6.23;2.67;;;;;;;;;;5072860;28;20469;-50
2024/01/15 02:34:31;;;;;;;6.97;2.23;;;;;;;;;;5072729;28;20429;-50
2024/01/15 02:36:57;;;;;;;8.00;2.60;;;;;;;;;;5067692;28;20446;-50
2024/01/15 02:39:23;;;;;;;5.37;2.13;;;;;;;;;;5069481;28;20430;-50
2024/01/15 02:41:51;;;;;;;6.10;2.23;;;;;;;;;;5070812;28;20624;-50
2024/01/15 02:44:17;;;;;;;5.57;2.37;;;;;;;;;;5071087;28;20199;-50
2024/01/15 02:46:43;;;;;;;3.93;1.80;;;;;;;;;;5069021;28;20547;-51
2024/01/15 02:49:09;;;;;;;7.93;2.77;;;;;;;;;;5070795;28;20234;-50
2024/01/15 02:51:35;;;;;;;6.47;2.10;;;;;;;;;;5067106;28;20208;-51
2024/01/15 02:54:01;;;;;;;6.63;2.20;;;;;;;;;;5063939;28;20211;-50
2024/01/15 02:56:27;;;;;;;8.87;2.30;;;;;;;;;;5067384;28;20203;-50
2024/01/15 02:58:54;;;;;;;7.53;2.13;;;;;;;;;;5070549;28;20438;-51
2024/01/15 03:01:20;;;;;;;5.07;2.27;;;;;;;;;;5065722;28;20203;-50
2024/01/15 03:03:46;;;;;;;5.17;2.10;;;;;;;;;;5063727;28;20982;-50
2024/01/15 03:06:12;;;;;;;7.17;2.07;;;;;;;;;;5063726;28;20470;-50
2024/01/15 03:08:38;;;;;;;8.90;2.27;;;;;;;;;;5063441;28;20241;-50
2024/01/15 03:11:04;;;;;;;5.13;2.10;;;;;;;;;;5063379;28;20318;-50
2024/01/15 03:13:30;;;;;;;6.13;2.03;;;;;;;;;;5063568;28;20678;-51
2024/01/15 03:15:57;;;;;;;9.23;2.60;;;;;;;;;;5064933;28;20215;-50
2024/01/15 03:18:23;;;;;;;8.13;1.97;;;;;;;;;;5062413;28;20223;-50
2024/01/15 03:20:49;;;;;;;7.23;2.40;;;;;;;;;;5062100;28;20453;-50
2024/01/15 03:23:15;;;;;;;5.63;2.13;;;;;;;;;;5065183;28;20199;-50
2024/01/15 03:25:41;;;;;;;5.73;1.90;;;;;;;;;;5063221;28;21418;-51
2024/01/15 03:28:07;;;;;;;6.00;2.20;;;;;;;;;;5062968;28;20207;-50
2024/01/15 03:30:33;;;;;;;6.17;2.10;;;;;;;;;;5063217;28;20231;-50
2024/01/15 03:33:00;;;;;;;8.87;2.47;;;;;;;;;;5063297;28;20469;-50
2024/01/15 03:35:29;;;;;;;6.47;2.20;;;;;;;;;;5063543;28;20195;-50
2024/01/15 03:37:55;;;;;;;8.47;2.30;;;;;;;;;;5061222;28;20920;-50
2024/01/15 03:40:21;;;;;;;8.00;1.97;;;;;;;;;;5061342;28;20537;-50
2024/01/15 03:42:47;;;;;;;6.03;2.13;;;;;;;;;;5061217;28;20513;-50
2024/01/15 03:45:13;;;;;;;8.53;2.47;;;;;;;;;;5063175;28;20221;-50
2024/01/15 03:47:39;;;;;;;10.30;2.47;;;;;;;;;;5061148;28;20235;-50
2024/01/15 03:50:07;;;;;;;5.67;1.80;;;;;;;;;;5066139;28;20841;-50
2024/01/15 03:52:33;;;;;;;5.13;1.90;;;;;;;;;;5062637;28;20536;-50
2024/01/15 03:54:59;;;;;;;4.87;1.80;;;;;;;;;;5061268;28;20808;-50
2024/01/15 03:57:25;;;;;;;6.80;1.87;;;;;;;;;;5060988;28;20849;-50
2024/01/15 03:59:51;;;;;;;8.70;2.47;;;;;;;;;;5060717;28;20430;-50
2024/01/15 04:02:17;;;;;;;7.83;2.23;;;;;;;;;;5060771;28;20683;-50
2024/01/15 04:04:44;;;;;;;5.70;2.73;;;;;;;;;;5061397;28;20505;-50
2024/01/15 04:07:11;;;;;;;6.97;2.27;;;;;;;;;;5062616;28;20227;-50
2024/01/15 04:09:37;;;;;;;5.90;2.17;;;;;;;;;;5058978;28;20449;-49
2024/01/15 04:12:04;;;;;;;8.00;2.20;;;;;;;;;;5062244;28;21026;-50
2024/01/15 04:14:30;;;;;;;5.40;2.43;;;;;;;;;;5060804;28;20452;-50
2024/01/15 04:16:55;;;;;;;6.10;2.23;;;;;;;;;;5058716;28;20458;-51
2024/01/15 04:19:21;;;;;;;7.60;2.77;;;;;;;;;;5058785;28;20739;-50
2024/01/15 04:21:47;;;;;;;4.53;2.17;;;;;;;;;;5058694;28;20210;-51
2024/01/15 04:24:17;;;;;;;3.20;2.13;;;;;;;;;;5060638;28;20203;-50
2024/01/15 04:26:43;;;;;;;6.20;2.47;;;;;;;;;;5060351;28;20474;-51
2024/01/15 04:29:09;;;;;;;6.30;1.90;;;;;;;;;;5058569;28;20442;-51
2024/01/15 04:31:35;;;;;;;6.80;1.97;;;;;;;;;;5058449;28;20245;-51
2024/01/15 04:34:01;;;;;;;5.43;2.00;;;;;;;;;;5060170;28;20503;-51
2024/01/15 04:36:27;;;;;;;4.10;2.10;;;;;;;;;;5058567;28;20199;-51
2024/01/15 04:38:53;;;;;;;5.10;2.13;;;;;;;;;;5058378;28;20195;-51
2024/01/15 04:41:21;;;;;;;7.30;2.67;;;;;;;;;;5057869;28;20442;-50
2024/01/15 04:43:47;;;;;;;7.37;2.47;;;;;;;;;;5058291;28;20199;-51
2024/01/15 04:46:13;;;;;;;5.53;2.60;;;;;;;;;;5058327;28;20527;-51
2024/01/15 04:48:39;;;;;;;6.20;2.53;;;;;;;;;;5059890;28;20441;-51
2024/01/15 04:51:06;;;;;;;7.23;2.40;;;;;;;;;;5058095;28;20229;-51
2024/01/15 04:53:31;;;;;;;10.23;2.67;;;;;;;;;;5058323;28;20430;-50
2024/01/15 04:55:57;;;;;;;5.10;2.43;;;;;;;;;;5058190;28;20499;-50
2024/01/15 04:58:27;;;;;;;8.07;2.60;;;;;;;;;;5058102;28;20278;-50
2024/01/15 05:00:54;;;;;;;6.80;2.40;;;;;;;;;;5057923;28;20709;-51
2024/01/15 05:03:20;;;;;;;6.17;1.90;;;;;;;;;;5058075;28;20430;-50
2024/01/15 05:05:46;;;;;;;5.13;2.30;;;;;;;;;;5057959;28;20438;-50
2024/01/15 05:08:12;;;;;;;9.57;2.70;;;;;;;;;;5058142;28;20727;-50
2024/01/15 05:10:38;;;;;;;11.60;2.80;;;;;;;;;;5059559;28;20242;-51
2024/01/15 05:13:04;;;;;;;9.17;2.40;;;;;;;;;;5059057;28;20458;-51
2024/01/15 05:15:31;;;;;;;6.77;2.27;;;;;;;;;;5059768;28;21266;-51
2024/01/15 05:17:57;;;;;;;5.10;2.37;;;;;;;;;;5059517;28;20458;-50
2024/01/15 05:20:23;;;;;;;3.97;2.20;;;;;;;;;;5057834;28;20472;-51
2024/01/15 05:22:49;;;;;;;3.53;2.40;;;;;;;;;;5059488;28;20202;-51
2024/01/15 05:25:15;;;;;;;7.50;2.20;;;;;;;;;;5059741;28;20565;-50
2024/01/15 05:27:41;;;;;;;4.40;1.93;;;;;;;;;;5057804;28;20215;-51
2024/01/15 05:30:07;;;;;;;6.73;2.13;;;;;;;;;;5057691;28;20210;-51
2024/01/15 05:32:34;;;;;;;4.63;2.37;;;;;;;;;;5057785;28;20203;-50
2024/01/15 05:35:00;;;;;;;7.53;2.60;;;;;;;;;;5057847;28;20462;-50
2024/01/15 05:37:26;;;;;;;6.83;2.20;;;;;;;;;;5057778;28;20539;-51
2024/01/15 05:39:52;;;;;;;8.70;2.97;;;;;;;;;;5057617;28;20202;-50
2024/01/15 05:42:18;;;;;;;5.30;3.00;;;;;;;;;;5056160;28;20661;-51
2024/01/15 05:44:44;;;;;;;6.30;3.40;;;;;;;;;;5057723;28;20206;-51
2024/01/15 05:47:10;;;;;;;11.90;3.47;;;;;;;;;;5059430;28;20488;-51
2024/01/15 05:49:38;;;;;;;5.70;3.40;;;;;;;;;;5059231;28;20207;-50
2024/01/15 05:52:04;;;;;;;9.37;3.20;;;;;;;;;;5058474;28;20723;-51
2024/01/15 05:54:30;;;;;;;6.90;2.70;;;;;;;;;;5061632;28;20808;-51
2024/01/15 05:56:56;;;;;;;10.83;3.07;;;;;;;;;;5061609;28;20442;-51
2024/01/15 05:59:23;;;;;;;5.03;2.40;;;;;;;;;;5063139;28;20202;-51
2024/01/15 06:01:49;;;;;;;9.17;2.90;;;;;;;;;;5063017;28;20195;-51
2024/01/15 06:04:15;;;;;;;7.73;2.67;;;;;;;;;;5061510;28;20479;-51
2024/01/15 06:06:42;;;;;;;5.40;2.33;;;;;;;;;;5061072;28;20477;-50
2024/01/15 06:09:08;;;;;;;6.07;2.60;;;;;;;;;;5061534;28;20206;-50
2024/01/15 06:11:34;;;;;;;7.30;2.50;;;;;;;;;;5062587;28;20848;-51
2024/01/15 06:14:00;;;;;;;11.93;3.40;;;;;;;;;;5061041;28;20483;-50
2024/01/15 06:16:26;;;;;;;6.77;2.63;;;;;;;;;;5061042;28;20438;-50
2024/01/15 06:18:52;;;;;;;7.57;2.73;;;;;;;;;;5060457;28;20446;-51
2024/01/15 06:21:18;;;;;;;9.43;2.80;;;;;;;;;;5062511;28;20470;-52
2024/01/15 06:23:46;;;;;;;7.93;2.73;;;;;;;;;;5060752;28;20253;-52
2024/01/15 06:26:12;;;;;;;6.60;2.13;;;;;;;;;;5060876;28;20634;-52
2024/01/15 06:28:38;;;;;;;8.27;2.60;;;;;;;;;;5060808;28;20432;-51
2024/01/15 06:31:05;;;;;;;7.40;2.70;;;;;;;;;;5060448;28;20430;-51
2024/01/15 06:33:31;;;;;;;9.47;2.73;;;;;;;;;;5060628;28;20996;-51
2024/01/15 06:35:57;;;;;;;5.07;2.50;;;;;;;;;;5060460;28;20450;-52
2024/01/15 06:38:25;;;;;;;6.03;2.67;;;;;;;;;;5060581;28;20226;-52
2024/01/15 06:40:52;;;;;;;6.93;2.63;;;;;;;;;;5060497;28;20206;-51
2024/01/15 06:43:18;;;;;;;10.37;2.50;;;;;;;;;;5060999;28;20520;-52
2024/01/15 06:45:44;;;;;;;4.87;2.50;;;;;;;;;;5062143;28;20469;-51
2024/01/15 06:48:14;;;;;;;6.77;2.50;;;;;;;;;;5061442;28;20486;-52
2024/01/15 06:50:40;;;;;;;4.63;2.30;;;;;;;;;;5060155;28;20451;-52
2024/01/15 06:53:06;;;;;;;8.20;2.80;;;;;;;;;;5060072;28;20437;-52
2024/01/15 06:55:32;;;;;;;5.00;2.60;;;;;;;;;;5060210;28;20218;-51
2024/01/15 06:57:59;;;;;;;7.03;2.63;;;;;;;;;;5060304;28;21031;-51
2024/01/15 07:00:26;;;;;;;4.37;2.47;;;;;;;;;;5060233;28;20230;-52
2024/01/15 07:02:52;;;;;;;4.87;2.40;;;;;;;;;;5059386;28;20470;-51
2024/01/15 07:05:18;;;;;;;6.47;2.80;;;;;;;;;;5060209;28;20426;-51
2024/01/15 07:07:43;;;;;;;5.13;2.90;;;;;;;;;;5060032;28;20469;-51
2024/01/15 07:10:10;;;;;;;5.20;2.37;;;;;;;;;;5059576;28;20438;-53
2024/01/15 07:12:36;;;;;;;5.87;2.70;;;;;;;;;;5061488;28;20745;-49
2024/01/15 07:15:06;;;;;;;4.37;2.07;;;;;;;;;;5059970;28;20430;-53
2024/01/15 07:17:32;;;;;;;6.80;2.50;;;;;;;;;;5061462;28;20462;-52
2024/01/15 07:19:58;;;;;;;4.40;2.60;;;;;;;;;;5071827;28;20970;-52
2024/01/15 07:22:24;;;;;;;4.40;2.47;;;;;;;;;;5073092;28;20192;-52
2024/01/15 07:24:50;;;;;;;5.13;2.83;;;;;;;;;;5073325;28;20188;-52
2024/01/15 07:27:16;;;;;;;4.80;2.70;;;;;;;;;;5073541;28;20586;-52
2024/01/15 07:29:42;;;;;;;3.27;2.40;;;;;;;;;;5073480;28;20198;-52
2024/01/15 07:32:10;;;;;;;5.00;2.93;;;;;;;;;;5073289;28;20446;-50
2024/01/15 07:34:36;;;;;;;6.10;3.00;;;;;;;;;;5073426;28;20554;-52
2024/01/15 07:37:02;;;;;;;4.97;2.90;;;;;;;;;;5072718;28;20438;-52
2024/01/15 07:39:28;;;;;;;3.47;2.30;;;;;;;;;;5073243;28;20438;-52
2024/01/15 07:41:54;;;;;;;6.47;2.53;;;;;;;;;;5072712;28;20473;-51
2024/01/15 07:44:20;;;;;;;4.43;2.33;;;;;;;;;;5073022;28;20944;-50
2024/01/15 07:46:46;;;;;;;5.50;2.97;;;;;;;;;;5072374;28;20483;-52
2024/01/15 07:49:14;;;;;;;5.37;2.40;;;;;;;;;;5073312;28;20195;-49
2024/01/15 07:51:40;;;;;;;5.83;2.50;;;;;;;;;;5072874;28;20452;-52
2024/01/15 07:54:07;;;;;;;6.47;2.60;;;;;;;;;;5072818;28;20437;-52
2024/01/15 07:56:33;;;;;;;6.03;2.60;;;;;;;;;;5072727;28;20453;-52
2024/01/15 07:58:59;;;;;;;4.00;2.30;;;;;;;;;;5072870;28;20463;-49
2024/01/15 08:01:25;;;;;;;7.53;3.43;;;;;;;;;;5072757;28;20195;-50
2024/01/15 08:03:52;;;;;;;5.27;2.90;;;;;;;;;;5072850;28;20528;-49
2024/01/15 08:06:21;;;;;;;12.27;3.07;;;;;;;;;;5072500;28;20942;-51
2024/01/15 08:08:46;;;;;;;4.23;2.70;;;;;;;;;;5072699;28;20473;-50
2024/01/15 08:11:12;;;;;;;5.67;2.70;;;;;;;;;;5072556;28;20493;-50
2024/01/15 08:13:38;;;;;;;5.70;2.43;;;;;;;;;;5072510;28;20649;-50
2024/01/15 08:16:05;;;;;;;6.17;2.93;;;;;;;;;;5071438;28;20252;-50
2024/01/15 08:18:31;;;;;;;5.37;2.23;;;;;;;;;;5072379;28;20247;-50
2024/01/15 08:20:57;;;;;;;4.83;2.17;;;;;;;;;;5072367;28;20464;-50
2024/01/15 08:23:24;;;;;;;4.87;2.20;;;;;;;;;;5072389;28;20470;-51
2024/01/15 08:25:50;;;;;;;3.77;2.37;;;;;;;;;;5069828;28;20196;-50
2024/01/15 08:28:16;;;;;;;4.60;1.93;;;;;;;;;;5062552;28;21589;-51
2024/01/15 08:30:42;;;;;;;4.40;2.20;;;;;;;;;;5060771;28;20509;-51
2024/01/15 08:33:08;;;;;;;5.33;2.50;;;;;;;;;;5061373;28;20731;-49
2024/01/15 08:35:35;;;;;;;4.90;2.27;;;;;;;;;;5062184;28;20426;-51
2024/01/15 08:38:01;;;;;;;6.43;2.17;;;;;;;;;;5060536;28;20196;-51
2024/01/15 08:40:28;;;;;;;6.07;2.83;;;;;;;;;;5061843;28;20520;-51
2024/01/15 08:42:54;;;;;;;6.30;3.10;;;;;;;;;;5062127;28;20435;-51
2024/01/15 08:45:21;;;;;;;5.30;2.77;;;;;;;;;;5060550;28;20866;-51
2024/01/15 08:47:47;;;;;;;5.03;2.57;;;;;;;;;;5063233;28;20444;-51
2024/01/15 08:50:13;;;;;;;5.80;2.67;;;;;;;;;;5071931;28;20446;-51
2024/01/15 08:52:39;;;;;;;5.03;2.60;;;;;;;;;;5071937;28;20507;-51
2024/01/15 08:55:07;;;;;;;4.77;2.80;;;;;;;;;;5071616;28;20449;-51
2024/01/15 08:57:34;;;;;;;6.93;3.10;;;;;;;;;;5071989;28;20203;-51
2024/01/15 09:00:00;;;;;;;7.07;3.00;;;;;;;;;;5071732;28;20931;-51
2024/01/15 09:02:26;;;;;;;7.23;2.40;;;;;;;;;;5072025;28;20526;-51
2024/01/15 09:04:52;;;;;;;8.23;2.50;;;;;;;;;;5071576;28;20874;-51
2024/01/15 09:07:19;;;;;;;6.77;2.93;;;;;;;;;;5071517;28;20227;-50
2024/01/15 09:09:44;;;;;;;9.23;3.13;;;;;;;;;;5071843;28;20203;-50
2024/01/15 09:12:10;;;;;;;6.63;2.93;;;;;;;;;;5071333;28;20519;-50
2024/01/15 09:14:38;;;;;;;4.80;2.73;;;;;;;;;;5071901;28;20661;-50
2024/01/15 09:17:04;;;;;;;5.40;2.93;;;;;;;;;;5071458;28;20234;-50
2024/01/15 09:19:30;;;;;;;8.50;3.23;;;;;;;;;;5071755;28;20446;-50
2024/01/15 09:21:56;;;;;;;5.33;2.47;;;;;;;;;;5071487;28;20444;-51
2024/01/15 09:24:22;;;;;;;6.47;2.30;;;;;;;;;;5071575;28;20192;-50
2024/01/15 09:26:48;;;;;;;4.83;1.97;;;;;;;;;;5074985;28;20743;-50
2024/01/15 09:29:15;;;;;;;4.10;2.23;;;;;;;;;;5078288;28;20258;-52
2024/01/15 09:31:43;;;;;;;5.07;2.30;;;;;;;;;;5078206;28;20199;-50
2024/01/15 09:34:09;;;;;;;4.30;2.33;;;;;;;;;;5078051;28;21325;-51
2024/01/15 09:36:40;;;;;;;2.33;2.03;;;;;;;;;;5078259;28;20509;-50
2024/01/15 09:39:08;;;;;;;5.27;2.00;;;;;;;;;;5078045;28;20199;-50
2024/01/15 09:41:34;;;;;;;4.80;2.30;;;;;;;;;;5078028;28;20429;-52
2024/01/15 09:44:00;;;;;;;6.33;3.07;;;;;;;;;;5078165;28;20516;-49
2024/01/15 09:46:26;;;;;;;2.90;1.90;;;;;;;;;;5078065;28;20441;-51
2024/01/15 09:48:53;;;;;;;1.93;1.60;;;;;;;;;;5077928;28;20426;-50
2024/01/15 09:51:20;;;;;;;3.73;1.97;;;;;;;;;;5077836;28;20210;-50
2024/01/15 09:53:47;;;;;;;2.60;1.70;;;;;;;;;;5078024;28;20484;-53
2024/01/15 09:56:14;;;;;;;2.67;1.80;;;;;;;;;;5078182;28;20897;-51
2024/01/15 09:58:41;;;;;;;3.00;2.10;;;;;;;;;;5077994;28;20441;-51
2024/01/15 10:01:08;;;;;;;4.23;2.20;;;;;;;;;;5077947;28;20468;-52
2024/01/15 10:03:34;;;;;;;3.93;2.33;;;;;;;;;;5078323;28;20486;-52
2024/01/15 10:06:02;;;;;;;3.73;2.40;;;;;;;;;;5078160;28;20433;-52
2024/01/15 10:08:28;;;;;;;6.03;2.77;;;;;;;;;;5078399;28;20927;-52
2024/01/15 10:10:54;;;;;;;3.73;2.57;;;;;;;;;;5077514;28;20446;-52
2024/01/15 10:13:21;;;;;;;4.27;2.70;;;;;;;;;;5077700;28;20421;-52
2024/01/15 10:15:47;;;;;;;4.53;2.20;;;;;;;;;;5077727;28;20204;-52
2024/01/15 10:18:13;;;;;;;3.33;2.40;;;;;;;;;;5077693;28;20449;-52
2024/01/15 10:20:40;;;;;;;3.37;2.07;;;;;;;;;;5077885;28;20516;-52
2024/01/15 10:23:07;;;;;;;2.80;2.20;;;;;;;;;;5077675;28;20200;-52
2024/01/15 10:25:35;;;;;;;5.63;2.37;;;;;;;;;;5077739;28;20449;-52
2024/01/15 10:28:02;;;;;;;3.43;2.10;;;;;;;;;;5077693;28;20572;-52
2024/01/15 10:30:28;;;;;;;3.37;2.40;;;;;;;;;;5077855;28;20444;-52
2024/01/15 10:32:59;;;;;;;6.60;2.73;;;;;;;;;;5077347;28;20920;-51
2024/01/15 10:35:27;;;;;;;5.33;2.33;;;;;;;;;;5077619;28;20214;-52
2024/01/15 10:37:53;;;;;;;4.43;2.23;;;;;;;;;;5075462;28;20491;-52
2024/01/15 10:40:20;;;;;;;3.77;2.33;;;;;;;;;;5074271;28;20434;-51
2024/01/15 10:42:47;;;;;;;6.97;2.77;;;;;;;;;;5074345;28;20195;-52
2024/01/15 10:45:13;;;;;;;2.77;1.90;;;;;;;;;;5074216;28;20465;-51
2024/01/15 10:47:39;;;;;;;5.17;2.07;;;;;;;;;;5073964;28;20486;-51
2024/01/15 10:50:07;;;;;;;4.70;2.30;;;;;;;;;;5073868;28;20487;-51
2024/01/15 10:52:33;;;;;;;9.53;2.33;;;;;;;;;;5074276;28;20441;-51
2024/01/15 10:55:00;;;;;;;5.27;2.50;;;;;;;;;;5074249;28;20438;-51
2024/01/15 10:57:28;;;;;;;3.70;2.07;;;;;;;;;;5074112;28;20438;-51
2024/01/15 10:59:54;;;;;;;4.63;2.20;;;;;;;;;;5073863;28;20983;-51
2024/01/15 11:02:20;;;;;;;6.40;2.33;;;;;;;;;;5073926;28;20473;-51
2024/01/15 11:05:05;;;;;;;5.77;2.43;;;;;;;;;;5074004;28;20249;-51
2024/01/15 11:07:31;;;;;;;4.10;2.20;;;;;;;;;;5073730;28;20479;-52
2024/01/15 11:10:00;;;;;;;3.83;2.50;;;;;;;;;;5073841;28;20900;-52
2024/01/15 11:12:27;;;;;;;3.73;2.33;;;;;;;;;;5073657;28;20556;-51
2024/01/15 11:15:03;;;;;;;5.20;2.20;;;;;;;;;;5073922;28;20438;-51
2024/01/15 11:17:49;;;;;;;3.50;2.30;;;;;;;;;;5074081;28;20516;-52
2024/01/15 11:20:17;;;;;;;4.97;2.70;;;;;;;;;;5073622;28;20528;-51
2024/01/15 11:22:49;;;;;;;6.33;2.87;;;;;;;;;;5073787;28;20442;-52
2024/01/15 11:25:16;;;;;;;6.57;3.00;;;;;;;;;;5073531;28;20844;-52
2024/01/15 11:27:42;;;;;;;3.70;2.60;;;;;;;;;;5073499;28;20501;-52
2024/01/15 11:30:10;;;;;;;5.93;2.53;;;;;;;;;;5073351;28;20441;-52
2024/01/15 11:32:36;;;;;;;3.83;2.23;;;;;;;;;;5073393;28;20487;-52
2024/01/15 11:35:03;;;;;;;6.37;2.50;;;;;;;;;;5072980;28;20491;-51
2024/01/15 11:37:47;;;;;;;4.13;2.57;;;;;;;;;;5073292;28;20832;-52
2024/01/15 11:40:14;;;;;;;4.73;2.20;;;;;;;;;;5073351;28;20438;-51
2024/01/15 11:42:40;;;;;;;6.03;2.50;;;;;;;;;;5073120;28;20792;-50
2024/01/15 11:45:06;;;;;;;4.43;2.07;;;;;;;;;;5073012;28;20438;-52
2024/01/15 11:47:54;;;;;;;7.80;2.57;;;;;;;;;;5073150;28;20227;-53
2024/01/15 11:50:21;;;;;;;5.60;2.83;;;;;;;;;;5072841;28;20464;-53
2024/01/15 11:52:52;;;;;;;7.03;2.20;;;;;;;;;;5073120;28;20453;-53
2024/01/15 11:55:20;;;;;;;4.53;2.40;;;;;;;;;;5073039;28;20442;-53
2024/01/15 11:57:46;;;;;;;5.97;2.30;;;;;;;;;;5073256;28;20529;-53
2024/01/15 12:00:13;;;;;;;5.00;2.30;;;;;;;;;;5073169;28;20525;-53
2024/01/15 12:02:40;;;;;;;4.23;2.20;;;;;;;;;;5073184;28;20533;-52
2024/01/15 12:05:07;;;;;;;4.13;2.50;;;;;;;;;;5072801;28;20940;-53
2024/01/15 12:07:34;;;;;;;3.93;2.00;;;;;;;;;;5072917;28;20474;-53
2024/01/15 12:10:01;;;;;;;7.20;2.30;;;;;;;;;;5072970;28;20430;-52
2024/01/15 12:12:32;;;;;;;5.37;2.87;;;;;;;;;;5072604;28;21031;-53
2024/01/15 12:14:58;;;;;;;6.77;2.97;;;;;;;;;;5072781;28;20448;-53
2024/01/15 12:17:24;;;;;;;5.53;2.37;;;;;;;;;;5072548;28;20458;-53
2024/01/15 12:19:50;;;;;;;8.90;2.60;;;;;;;;;;5072629;28;20430;-53
2024/01/15 12:22:16;;;;;;;7.93;3.77;;;;;;;;;;5071357;28;20799;-52
2024/01/15 12:24:42;;;;;;;5.70;2.60;;;;;;;;;;5072724;28;20438;-53
2024/01/15 12:27:10;;;;;;;7.40;3.23;;;;;;;;;;5072508;28;20219;-52
2024/01/15 12:29:36;;;;;;;3.83;2.30;;;;;;;;;;5072602;28;20440;-53
2024/01/15 12:32:02;;;;;;;5.20;2.40;;;;;;;;;;5072604;28;20801;-53
2024/01/15 12:34:30;;;;;;;4.40;2.13;;;;;;;;;;5072274;28;20802;-53
2024/01/15 12:36:57;;;;;;;4.10;2.40;;;;;;;;;;5072525;28;20430;-52
2024/01/15 12:39:23;;;;;;;5.37;2.80;;;;;;;;;;5072218;28;20540;-53
2024/01/15 12:41:49;;;;;;;6.83;2.53;;;;;;;;;;5072473;28;20525;-54
2024/01/15 12:44:17;;;;;;;5.63;2.50;;;;;;;;;;5072418;28;20205;-54
2024/01/15 12:46:43;;;;;;;4.57;2.07;;;;;;;;;;5072211;28;20954;-54
2024/01/15 12:49:09;;;;;;;5.33;2.60;;;;;;;;;;5072368;28;20445;-54
2024/01/15 12:51:35;;;;;;;2.63;2.03;;;;;;;;;;5072481;28;20521;-55
2024/01/15 12:54:01;;;;;;;4.53;2.50;;;;;;;;;;5072454;28;20201;-55
2024/01/15 12:56:27;;;;;;;7.80;2.10;;;;;;;;;;5072411;28;20471;-54
2024/01/15 12:58:53;;;;;;;6.13;2.13;;;;;;;;;;5072471;28;20828;-54
2024/01/15 13:01:21;;;;;;;3.93;2.13;;;;;;;;;;5071470;28;20214;-53
2024/01/15 13:03:47;;;;;;;6.10;2.40;;;;;;;;;;5072039;28;20209;-54
2024/01/15 13:06:13;;;;;;;6.73;2.57;;;;;;;;;;5071874;28;20437;-53
2024/01/15 13:08:39;;;;;;;7.10;2.40;;;;;;;;;;5071718;28;20595;-54
2024/01/15 13:11:05;;;;;;;6.80;2.13;;;;;;;;;;5071919;28;20827;-54
2024/01/15 13:13:34;;;;;;;5.77;2.20;;;;;;;;;;5072162;28;20445;-53
2024/01/15 13:16:00;;;;;;;6.63;3.10;;;;;;;;;;5072057;28;20939;-54
2024/01/15 13:18:27;;;;;;;8.23;2.60;;;;;;;;;;5071903;28;20450;-54
2024/01/15 13:20:53;;;;;;;4.63;2.60;;;;;;;;;;5071924;28;20203;-54
2024/01/15 13:23:20;;;;;;;6.30;2.30;;;;;;;;;;5071779;28;20438;-54
2024/01/15 13:25:46;;;;;;;5.17;2.27;;;;;;;;;;5071959;28;20484;-55
2024/01/15 13:28:12;;;;;;;5.47;2.30;;;;;;;;;;5071973;28;20485;-54
2024/01/15 13:30:38;;;;;;;4.63;2.40;;;;;;;;;;5071987;28;20465;-53
2024/01/15 13:33:05;;;;;;;7.57;3.17;;;;;;;;;;5071741;28;20469;-54
2024/01/15 13:35:32;;;;;;;5.80;2.70;;;;;;;;;;5071722;28;20654;-53
2024/01/15 13:37:59;;;;;;;4.13;2.10;;;;;;;;;;5071992;28;20430;-53
2024/01/15 13:40:24;;;;;;;4.13;2.30;;;;;;;;;;5071801;28;20425;-53
2024/01/15 13:42:52;;;;;;;4.53;2.03;;;;;;;;;;5071691;28;20888;-53
2024/01/15 13:45:20;;;;;;;5.50;2.67;;;;;;;;;;5071502;28;20726;-52
2024/01/15 13:47:46;;;;;;;2.73;1.90;;;;;;;;;;5071685;28;20530;-53
2024/01/15 13:50:12;;;;;;;7.07;2.67;;;;;;;;;;5071372;28;20438;-52
2024/01/15 13:52:40;;;;;;;4.63;2.50;;;;;;;;;;5071572;28;20200;-51
2024/01/15 13:55:08;;;;;;;3.87;2.20;;;;;;;;;;5071574;28;21296;-53
2024/01/15 13:57:34;;;;;;;6.00;2.07;;;;;;;;;;5071436;28;20437;-52
2024/01/15 14:00:00;;;;;;;5.00;2.03;;;;;;;;;;5053304;28;20442;-53
2024/01/15 14:02:26;;;;;;;4.37;2.23;;;;;;;;;;5051260;28;20200;-53
2024/01/15 14:04:52;;;;;;;5.23;2.70;;;;;;;;;;5051259;28;20670;-54
2024/01/15 14:07:18;;;;;;;5.13;2.37;;;;;;;;;;5051172;28;20255;-54
2024/01/15 14:09:45;;;;;;;6.00;2.20;;;;;;;;;;5051565;28;20204;-56
2024/01/15 14:12:11;;;;;;;7.57;2.27;;;;;;;;;;5051150;28;20243;-54
2024/01/15 14:14:37;;;;;;;4.77;2.57;;;;;;;;;;5054452;28;20435;-54
2024/01/15 14:17:03;;;;;;;4.87;2.23;;;;;;;;;;5054905;28;20473;-54
2024/01/15 14:19:29;;;;;;;5.50;2.60;;;;;;;;;;5054983;28;20204;-53
2024/01/15 14:21:55;;;;;;;4.60;2.30;;;;;;;;;;5054990;28;20493;-52
2024/01/15 14:24:21;;;;;;;3.33;2.00;;;;;;;;;;5052474;28;20238;-53
2024/01/15 14:26:49;;;;;;;4.47;2.20;;;;;;;;;;5071038;28;20206;-52
2024/01/15 14:29:15;;;;;;;5.40;2.10;;;;;;;;;;5074212;28;20442;-52
2024/01/15 14:31:41;;;;;;;3.47;2.07;;;;;;;;;;5074324;28;20442;-53
2024/01/15 14:34:07;;;;;;;5.03;2.80;;;;;;;;;;5074647;28;20195;-50
2024/01/15 14:36:33;;;;;;;3.43;2.27;;;;;;;;;;5074485;28;20234;-51
2024/01/15 14:38:59;;;;;;;5.47;2.77;;;;;;;;;;5074589;28;20454;-51